Time;durP1;ratioP1;P1;durP2;ratioP2;P2;SDS_P1;SDS_P2;PMS_P1;PMS_P2;Temp;Humidity;BMP_temperature;BMP_pressure;BME280_temperature;BME280_humidity;BME280_pressure;Samples;Min_cycle;Max_cycle;Signal;HPM_P1;HPM_P2
2023/05/19 00:01:56;;;;;;;12.27;6.53;;;9.20;99.90;;;;;;4988614;28;20175;-83
2023/05/19 00:04:22;;;;;;;9.88;5.00;;;9.20;99.90;;;;;;4972544;28;20194;-83
2023/05/19 00:06:50;;;;;;;12.30;4.77;;;9.20;99.90;;;;;;4972665;28;20183;-83
2023/05/19 00:09:16;;;;;;;4.90;3.00;;;9.20;99.90;;;;;;4988533;28;20321;-83
2023/05/19 00:11:42;;;;;;;9.70;3.80;;;9.20;99.90;;;;;;4957733;29;20184;-83
2023/05/19 00:14:09;;;;;;;5.85;3.03;;;9.20;99.90;;;;;;4988372;28;20648;-84
2023/05/19 00:16:41;;;;;;;7.80;4.03;;;9.20;99.90;;;;;;4957749;29;20206;-83
2023/05/19 00:19:08;;;;;;;10.10;3.42;;;9.20;99.90;;;;;;4972624;28;20191;-83
2023/05/19 00:21:36;;;;;;;8.43;3.80;;;9.20;99.90;;;;;;4988179;28;20266;-83
2023/05/19 00:24:02;;;;;;;10.80;3.50;;;9.20;99.90;;;;;;4957497;29;20176;-83
2023/05/19 00:26:28;;;;;;;6.25;3.35;;;9.20;99.90;;;;;;4957491;29;20179;-83
2023/05/19 00:28:54;;;;;;;8.60;3.45;;;9.20;99.90;;;;;;4957210;29;20676;-83
2023/05/19 00:31:20;;;;;;;9.68;3.75;;;9.20;99.90;;;;;;4957546;29;20179;-83
2023/05/19 00:33:45;;;;;;;5.18;3.53;;;9.20;99.90;;;;;;4988503;28;20180;-83
2023/05/19 00:36:11;;;;;;;10.00;4.05;;;9.20;99.90;;;;;;4971651;28;20262;-83
2023/05/19 00:38:38;;;;;;;8.87;4.87;;;9.20;99.90;;;;;;4957070;28;20175;-83
2023/05/19 00:41:05;;;;;;;7.25;3.33;;;9.20;99.90;;;;;;4957135;29;20246;-84
2023/05/19 00:43:33;;;;;;;8.27;3.80;;;9.30;99.90;;;;;;4988128;28;20274;-83
2023/05/19 00:45:59;;;;;;;11.02;5.03;;;9.20;99.90;;;;;;4956644;28;20175;-83
2023/05/19 00:48:25;;;;;;;12.77;5.70;;;9.30;99.90;;;;;;4987889;28;20219;-83
2023/05/19 00:51:03;;;;;;;10.02;5.30;;;9.30;99.90;;;;;;4987969;28;20187;-83
2023/05/19 00:53:29;;;;;;;8.77;4.40;;;9.20;99.90;;;;;;4984963;28;20179;-83
2023/05/19 00:55:55;;;;;;;11.00;5.07;;;9.30;99.90;;;;;;4957037;29;20187;-83
2023/05/19 00:58:22;;;;;;;7.22;4.45;;;9.30;99.90;;;;;;4955478;28;20193;-83
2023/05/19 01:00:49;;;;;;;7.72;4.18;;;9.30;99.90;;;;;;4971514;28;20333;-83
2023/05/19 01:03:19;;;;;;;14.47;5.13;;;9.30;99.90;;;;;;4956606;29;20191;-83
2023/05/19 01:05:44;;;;;;;10.10;5.93;;;9.30;99.90;;;;;;4970951;28;20241;-82
2023/05/19 01:08:10;;;;;;;11.50;4.97;;;9.30;99.90;;;;;;4956522;29;20211;-83
2023/05/19 01:10:36;;;;;;;11.83;5.93;;;9.30;99.90;;;;;;4971599;28;20195;-83
2023/05/19 01:13:03;;;;;;;14.13;6.07;;;9.30;99.90;;;;;;4956665;29;20187;-83
2023/05/19 01:15:32;;;;;;;11.18;6.43;;;9.30;99.90;;;;;;4955101;28;20183;-83
2023/05/19 01:18:10;;;;;;;18.13;6.85;;;9.30;99.90;;;;;;4987000;28;20191;-83
2023/05/19 01:20:51;;;;;;;14.27;6.35;;;9.40;99.90;;;;;;4956684;29;20190;-83
2023/05/19 01:23:22;;;;;;;10.80;5.07;;;9.30;99.90;;;;;;4956545;29;20164;-83
2023/05/19 01:26:00;;;;;;;15.70;5.95;;;9.40;99.90;;;;;;4956712;29;20269;-83
2023/05/19 01:28:37;;;;;;;29.73;11.52;;;9.40;99.90;;;;;;4971149;28;20282;-83
2023/05/19 01:31:06;;;;;;;30.65;13.35;;;9.40;99.90;;;;;;4956280;29;20190;-83
2023/05/19 01:33:33;;;;;;;13.70;8.95;;;9.40;99.90;;;;;;4970911;28;20187;-83
2023/05/19 01:36:02;;;;;;;13.13;5.45;;;9.40;99.90;;;;;;4956238;29;20224;-83
2023/05/19 01:38:29;;;;;;;6.35;3.67;;;9.30;99.90;;;;;;4954689;29;20541;-83
2023/05/19 01:40:56;;;;;;;9.63;4.13;;;9.40;99.90;;;;;;4971057;28;20254;-83
2023/05/19 01:43:25;;;;;;;11.02;4.70;;;9.40;99.90;;;;;;4970954;28;20289;-83
2023/05/19 01:45:51;;;;;;;14.15;5.43;;;9.40;99.90;;;;;;4955797;29;20179;-83
2023/05/19 01:48:17;;;;;;;7.47;4.68;;;9.40;99.90;;;;;;4955765;29;20262;-84
2023/05/19 01:50:43;;;;;;;7.25;4.40;;;9.40;99.90;;;;;;4955051;28;20183;-83
2023/05/19 01:53:09;;;;;;;9.93;3.70;;;9.40;99.90;;;;;;4955866;29;20190;-83
2023/05/19 01:55:46;;;;;;;6.70;4.07;;;9.40;99.90;;;;;;4955788;29;20175;-83
2023/05/19 01:58:46;;;;;;;5.43;3.92;;;9.40;99.90;;;;;;4953910;28;20636;-83
2023/05/19 02:01:39;;;;;;;4.15;2.90;;;9.40;99.90;;;;;;4955687;29;20551;-83
2023/05/19 02:04:14;;;;;;;11.05;3.80;;;9.40;99.90;;;;;;4951226;28;20259;-83
2023/05/19 02:06:59;;;;;;;5.63;3.58;;;9.40;99.90;;;;;;4955597;29;20174;-84
2023/05/19 02:09:41;;;;;;;4.85;3.58;;;9.40;99.90;;;;;;4970318;28;20231;-84
2023/05/19 02:12:30;;;;;;;8.20;4.25;;;9.40;99.90;;;;;;4954586;29;20199;-83
2023/05/19 02:15:02;;;;;;;5.72;4.15;;;9.40;99.90;;;;;;4955712;29;20218;-84
2023/05/19 02:17:31;;;;;;;6.63;3.92;;;9.40;99.90;;;;;;4970304;28;20278;-83
2023/05/19 02:19:58;;;;;;;6.97;4.35;;;9.40;99.90;;;;;;4955517;29;20692;-84
2023/05/19 02:22:24;;;;;;;5.45;3.65;;;9.40;99.90;;;;;;4955286;29;20179;-83
2023/05/19 02:24:50;;;;;;;5.45;3.75;;;9.40;99.90;;;;;;4954306;29;20197;-83
2023/05/19 02:27:17;;;;;;;4.95;3.42;;;9.40;99.90;;;;;;4955458;29;20733;-83
2023/05/19 02:29:42;;;;;;;8.23;4.03;;;9.40;99.90;;;;;;4986006;28;20206;-83
2023/05/19 02:32:09;;;;;;;7.40;4.53;;;9.50;99.90;;;;;;4955652;29;20226;-84
2023/05/19 02:34:35;;;;;;;7.15;3.78;;;9.50;99.90;;;;;;4953801;29;20633;-84
2023/05/19 02:37:01;;;;;;;6.57;4.15;;;9.50;99.90;;;;;;4986391;28;20262;-84
2023/05/19 02:39:29;;;;;;;8.10;5.32;;;9.50;99.90;;;;;;4955030;28;20274;-83
2023/05/19 02:41:54;;;;;;;6.90;4.32;;;9.40;99.90;;;;;;4958153;28;20277;-83
2023/05/19 02:44:20;;;;;;;5.63;3.85;;;9.40;99.90;;;;;;4989657;28;20171;-84
2023/05/19 02:46:48;;;;;;;6.65;4.82;;;9.50;99.90;;;;;;4974446;28;20236;-84
2023/05/19 02:49:13;;;;;;;7.05;4.60;;;9.50;99.90;;;;;;4957050;28;20660;-83
2023/05/19 02:51:39;;;;;;;6.68;4.05;;;9.50;99.90;;;;;;4973231;28;20636;-84
2023/05/19 02:54:05;;;;;;;6.30;4.50;;;9.50;99.90;;;;;;4975778;28;20636;-84
2023/05/19 02:56:30;;;;;;;9.75;5.43;;;9.50;99.90;;;;;;4977636;28;20188;-85
2023/05/19 02:58:57;;;;;;;9.13;5.00;;;9.50;99.90;;;;;;4976467;28;20351;-83
2023/05/19 03:01:22;;;;;;;16.08;6.63;;;9.50;99.90;;;;;;4978006;28;20179;-83
2023/05/19 03:03:48;;;;;;;11.68;5.55;;;9.50;99.90;;;;;;4994002;28;20185;-84
2023/05/19 03:06:14;;;;;;;8.98;4.68;;;9.50;99.90;;;;;;5013960;28;20472;-84
2023/05/19 03:08:40;;;;;;;7.93;4.95;;;9.50;99.90;;;;;;5013973;28;20258;-84
2023/05/19 03:11:05;;;;;;;10.70;5.18;;;9.50;99.90;;;;;;4985281;28;20182;-83
2023/05/19 03:13:31;;;;;;;12.57;6.43;;;9.50;99.90;;;;;;5000065;28;20257;-83
2023/05/19 03:15:57;;;;;;;11.27;5.82;;;9.50;99.90;;;;;;4999128;28;20186;-84
2023/05/19 03:18:24;;;;;;;10.32;5.97;;;9.50;99.90;;;;;;4999183;28;20243;-83
2023/05/19 03:20:52;;;;;;;8.77;5.25;;;9.50;99.90;;;;;;4984956;28;20186;-83
2023/05/19 03:23:18;;;;;;;9.68;5.57;;;9.50;99.90;;;;;;5001460;28;20159;-83
2023/05/19 03:25:44;;;;;;;5.80;4.65;;;9.50;99.90;;;;;;4997302;28;20181;-82
2023/05/19 03:28:10;;;;;;;8.13;5.07;;;9.50;99.90;;;;;;4985709;28;20214;-83
2023/05/19 03:30:36;;;;;;;9.60;6.00;;;9.60;99.90;;;;;;4992124;28;20256;-83
2023/05/19 03:33:01;;;;;;;17.10;8.57;;;9.70;99.90;;;;;;4973976;28;20653;-83
2023/05/19 03:35:27;;;;;;;11.85;7.07;;;9.60;99.90;;;;;;4989619;28;20194;-83
2023/05/19 03:37:53;;;;;;;12.50;7.68;;;9.60;99.90;;;;;;4976507;28;20226;-83
2023/05/19 03:40:19;;;;;;;16.20;7.28;;;9.60;99.90;;;;;;4976046;28;20687;-83
2023/05/19 03:42:44;;;;;;;16.40;7.63;;;9.60;99.90;;;;;;4956451;28;20723;-84
2023/05/19 03:45:10;;;;;;;16.85;6.07;;;9.60;99.90;;;;;;4975230;28;20225;-83
2023/05/19 03:47:36;;;;;;;13.95;6.28;;;9.60;99.90;;;;;;4990776;28;20341;-83
2023/05/19 03:50:01;;;;;;;12.80;5.82;;;9.70;99.90;;;;;;4990163;28;20277;-82
2023/05/19 03:52:27;;;;;;;18.00;6.15;;;9.70;99.90;;;;;;4973568;28;20710;-82
2023/05/19 03:54:53;;;;;;;7.78;5.35;;;9.70;99.90;;;;;;4957913;28;20197;-82
2023/05/19 03:57:18;;;;;;;10.88;5.25;;;9.70;99.90;;;;;;4991230;28;20708;-82
2023/05/19 03:59:44;;;;;;;8.38;4.60;;;9.70;99.90;;;;;;4975684;28;20651;-82
2023/05/19 04:02:10;;;;;;;17.45;6.35;;;9.70;99.90;;;;;;4975246;28;20196;-83
2023/05/19 04:04:38;;;;;;;12.02;5.47;;;9.70;99.90;;;;;;4990193;28;20690;-84
2023/05/19 04:07:04;;;;;;;12.52;6.38;;;9.80;99.90;;;;;;4975424;28;20273;-83
2023/05/19 04:09:34;;;;;;;13.68;6.85;;;9.80;99.90;;;;;;4957757;28;20297;-83
2023/05/19 04:12:01;;;;;;;20.90;6.95;;;9.80;99.90;;;;;;4988744;28;20194;-82
2023/05/19 04:14:27;;;;;;;15.35;7.45;;;9.80;99.90;;;;;;4957410;28;20536;-83
2023/05/19 04:16:53;;;;;;;10.80;6.88;;;9.80;99.90;;;;;;4974933;28;20656;-83
2023/05/19 04:19:19;;;;;;;13.13;7.25;;;9.80;99.90;;;;;;4975528;28;20314;-82
2023/05/19 04:21:45;;;;;;;20.35;10.65;;;9.80;99.90;;;;;;4988169;28;20629;-83
2023/05/19 04:24:11;;;;;;;21.23;13.50;;;9.80;99.90;;;;;;5004217;28;20242;-83
2023/05/19 04:26:40;;;;;;;27.80;13.85;;;9.80;99.90;;;;;;4956519;28;20222;-84
2023/05/19 04:29:06;;;;;;;30.30;14.77;;;9.80;99.90;;;;;;4988845;28;20210;-84
2023/05/19 04:31:33;;;;;;;23.67;12.40;;;9.90;99.90;;;;;;4989290;28;20558;-83
2023/05/19 04:34:00;;;;;;;18.67;10.50;;;9.90;99.90;;;;;;4988532;28;20227;-83
2023/05/19 04:36:26;;;;;;;17.17;7.95;;;9.90;99.90;;;;;;4989068;28;20191;-83
2023/05/19 04:38:53;;;;;;;11.02;6.40;;;9.90;99.90;;;;;;4969056;28;20670;-82
2023/05/19 04:41:19;;;;;;;11.35;5.80;;;9.90;99.90;;;;;;4953627;28;20207;-83
2023/05/19 04:43:47;;;;;;;7.65;5.07;;;9.90;99.90;;;;;;4973228;28;20234;-84
2023/05/19 04:46:13;;;;;;;15.82;5.03;;;9.90;99.90;;;;;;4973446;28;20202;-83
2023/05/19 04:48:39;;;;;;;6.15;3.30;;;9.90;99.90;;;;;;4956431;28;20222;-83
2023/05/19 04:51:06;;;;;;;7.07;4.45;;;9.90;99.90;;;;;;4974095;28;20290;-83
2023/05/19 04:53:32;;;;;;;6.75;4.32;;;9.90;99.90;;;;;;4988686;28;20214;-83
2023/05/19 04:55:59;;;;;;;7.78;3.70;;;10.00;99.90;;;;;;4967764;28;20579;-84
2023/05/19 04:58:26;;;;;;;7.30;4.13;;;10.00;99.90;;;;;;4973144;28;20186;-83
2023/05/19 05:00:54;;;;;;;5.43;3.42;;;10.00;99.90;;;;;;4990173;28;20190;-83
2023/05/19 05:03:21;;;;;;;7.65;4.60;;;10.10;99.90;;;;;;4971768;28;20193;-83
2023/05/19 05:05:47;;;;;;;11.00;4.53;;;10.00;99.90;;;;;;4988857;28;20273;-83
2023/05/19 05:08:15;;;;;;;14.65;4.30;;;10.10;99.90;;;;;;4990400;28;20663;-83
2023/05/19 05:10:41;;;;;;;10.52;4.18;;;10.10;99.90;;;;;;4975600;28;20647;-83
2023/05/19 05:13:07;;;;;;;8.27;4.03;;;10.10;99.90;;;;;;4975913;28;20181;-83
2023/05/19 05:15:34;;;;;;;8.13;4.50;;;10.20;99.90;;;;;;4990858;28;20179;-84
2023/05/19 05:18:00;;;;;;;8.07;4.15;;;10.20;99.90;;;;;;4990169;28;20179;-84
2023/05/19 05:20:26;;;;;;;7.22;4.43;;;10.20;99.90;;;;;;4958560;28;20266;-83
2023/05/19 05:22:52;;;;;;;17.75;4.53;;;10.20;99.90;;;;;;4959499;28;20229;-82
2023/05/19 05:25:18;;;;;;;10.13;3.70;;;10.20;99.90;;;;;;4975681;28;20632;-83
2023/05/19 05:27:44;;;;;;;8.50;4.25;;;10.30;99.90;;;;;;4975303;28;20206;-84
2023/05/19 05:30:10;;;;;;;5.63;3.78;;;10.30;99.90;;;;;;4975567;28;20183;-83
2023/05/19 05:32:35;;;;;;;13.15;4.82;;;10.30;99.90;;;;;;4990495;28;20201;-83
2023/05/19 05:35:01;;;;;;;11.95;4.97;;;10.30;99.90;;;;;;4990140;28;20237;-83
2023/05/19 05:37:27;;;;;;;14.10;4.68;;;10.30;99.90;;;;;;4973874;28;20194;-82
2023/05/19 05:39:52;;;;;;;9.50;4.38;;;10.30;99.90;;;;;;4973539;28;20178;-83
2023/05/19 05:42:19;;;;;;;9.18;4.90;;;10.30;99.90;;;;;;4973788;28;20365;-83
2023/05/19 05:44:44;;;;;;;5.72;3.95;;;10.30;99.90;;;;;;4990084;28;20202;-83
2023/05/19 05:47:11;;;;;;;9.05;4.18;;;10.40;99.90;;;;;;4989219;28;20269;-83
2023/05/19 05:49:37;;;;;;;6.40;3.67;;;10.40;99.90;;;;;;4972987;28;20747;-83
2023/05/19 05:52:04;;;;;;;8.95;3.50;;;10.50;99.90;;;;;;4980958;28;20209;-84
2023/05/19 05:54:30;;;;;;;5.88;4.38;;;10.50;99.90;;;;;;4982377;28;20190;-84
2023/05/19 05:56:56;;;;;;;8.25;4.30;;;10.50;99.90;;;;;;4966696;28;20178;-84
2023/05/19 05:59:21;;;;;;;11.30;4.53;;;10.50;99.90;;;;;;4984083;28;20178;-84
2023/05/19 06:01:47;;;;;;;4.82;3.83;;;10.60;99.90;;;;;;4974915;28;20558;-83
2023/05/19 06:04:13;;;;;;;5.75;3.63;;;10.60;99.90;;;;;;4985191;28;20194;-83
2023/05/19 06:06:38;;;;;;;7.28;4.05;;;10.60;99.90;;;;;;4965174;28;20186;-82
2023/05/19 06:09:04;;;;;;;13.82;5.32;;;10.60;99.90;;;;;;4964471;28;20210;-83
2023/05/19 06:11:30;;;;;;;4.75;3.70;;;10.50;99.90;;;;;;4980785;28;20587;-83
2023/05/19 06:13:56;;;;;;;7.63;3.83;;;10.50;99.90;;;;;;4983851;28;20178;-82
2023/05/19 06:16:21;;;;;;;6.10;3.90;;;10.50;99.90;;;;;;4991046;28;20671;-83
2023/05/19 06:18:47;;;;;;;6.32;3.35;;;10.50;99.90;;;;;;4965908;28;20190;-84
2023/05/19 06:21:13;;;;;;;9.90;3.35;;;10.50;99.90;;;;;;4980823;28;20192;-83
2023/05/19 06:23:41;;;;;;;7.97;3.97;;;10.60;99.90;;;;;;4990427;28;20235;-83
2023/05/19 06:26:07;;;;;;;7.80;4.63;;;10.60;99.90;;;;;;4975739;28;20178;-83
2023/05/19 06:28:33;;;;;;;6.40;4.22;;;10.60;99.90;;;;;;4975734;28;20229;-83
2023/05/19 06:30:59;;;;;;;7.43;4.47;;;10.60;99.90;;;;;;4975916;28;20185;-83
2023/05/19 06:33:25;;;;;;;12.90;4.75;;;10.70;99.90;;;;;;4984231;28;20632;-83
2023/05/19 06:35:51;;;;;;;7.35;4.32;;;10.70;99.90;;;;;;4981838;28;20292;-84
2023/05/19 06:38:16;;;;;;;8.45;4.72;;;10.70;99.90;;;;;;4977327;28;20191;-84
2023/05/19 06:40:42;;;;;;;6.10;3.78;;;10.70;99.90;;;;;;4976722;28;20182;-84
2023/05/19 06:43:08;;;;;;;8.23;3.83;;;10.70;99.90;;;;;;4975756;28;20230;-84
2023/05/19 06:45:34;;;;;;;8.55;4.18;;;10.80;99.90;;;;;;4973373;28;20183;-83
2023/05/19 06:47:59;;;;;;;6.60;3.92;;;10.80;99.90;;;;;;4988625;28;20297;-84
2023/05/19 06:50:25;;;;;;;4.97;3.58;;;10.90;99.90;;;;;;4972399;28;20194;-84
2023/05/19 06:52:51;;;;;;;9.50;4.22;;;10.90;99.90;;;;;;4973705;28;20639;-83
2023/05/19 06:55:17;;;;;;;4.50;3.53;;;10.90;99.90;;;;;;4990959;28;20627;-83
2023/05/19 06:57:42;;;;;;;9.43;4.70;;;10.90;99.90;;;;;;4989278;28;20191;-83
2023/05/19 07:00:11;;;;;;;7.38;4.22;;;11.00;99.90;;;;;;4972613;28;20266;-83
2023/05/19 07:02:40;;;;;;;8.30;3.60;;;11.00;99.90;;;;;;4988807;28;20182;-85
2023/05/19 07:05:07;;;;;;;6.90;3.63;;;11.00;99.90;;;;;;4988719;28;20198;-83
2023/05/19 07:07:32;;;;;;;7.82;4.18;;;11.00;99.90;;;;;;4973906;28;20266;-83
2023/05/19 07:09:58;;;;;;;4.47;3.33;;;11.10;99.90;;;;;;4972877;28;20347;-84
2023/05/19 07:12:25;;;;;;;6.57;3.72;;;11.10;99.90;;;;;;4989258;28;20189;-83
2023/05/19 07:14:51;;;;;;;6.95;3.90;;;11.20;99.90;;;;;;4988930;28;20266;-83
2023/05/19 07:17:17;;;;;;;5.72;4.03;;;11.20;99.90;;;;;;4972512;28;20187;-83
2023/05/19 07:19:42;;;;;;;6.30;4.05;;;11.20;99.90;;;;;;4974560;28;20579;-82
2023/05/19 07:22:08;;;;;;;8.55;3.28;;;11.20;99.90;;;;;;4974438;28;20644;-83
2023/05/19 07:24:34;;;;;;;5.72;3.40;;;11.30;99.90;;;;;;4989514;28;20179;-81
2023/05/19 07:27:00;;;;;;;8.13;3.80;;;11.30;99.90;;;;;;4989566;28;20190;-84
2023/05/19 07:29:25;;;;;;;4.78;3.22;;;11.40;99.90;;;;;;4988831;28;20206;-83
2023/05/19 07:31:53;;;;;;;9.40;3.72;;;11.40;99.90;;;;;;4972968;28;20202;-83
2023/05/19 07:34:19;;;;;;;6.93;3.83;;;11.40;99.90;;;;;;4988748;28;20290;-82
2023/05/19 07:36:45;;;;;;;6.32;4.10;;;11.50;99.90;;;;;;4972852;28;20229;-82
2023/05/19 07:39:11;;;;;;;6.60;4.22;;;11.50;99.90;;;;;;4988858;28;20206;-83
2023/05/19 07:41:37;;;;;;;6.90;3.95;;;11.50;99.90;;;;;;4972592;28;20183;-82
2023/05/19 07:44:06;;;;;;;5.57;3.50;;;11.60;99.90;;;;;;4957087;28;20220;-82
2023/05/19 07:46:32;;;;;;;6.07;4.05;;;11.60;99.90;;;;;;4956646;28;20189;-83
2023/05/19 07:48:58;;;;;;;5.70;3.70;;;11.70;99.90;;;;;;4972462;28;20210;-83
2023/05/19 07:51:24;;;;;;;5.57;4.00;;;11.70;99.90;;;;;;4956440;28;21058;-83
2023/05/19 07:53:50;;;;;;;6.28;3.75;;;11.80;99.90;;;;;;4988412;28;20183;-83
2023/05/19 07:56:15;;;;;;;11.18;4.90;;;11.80;99.90;;;;;;4956593;28;20281;-83
2023/05/19 07:58:41;;;;;;;16.73;4.68;;;11.80;99.90;;;;;;4975612;28;20259;-83
2023/05/19 08:01:07;;;;;;;9.13;4.85;;;11.80;99.90;;;;;;4991075;28;20193;-84
2023/05/19 08:03:33;;;;;;;7.45;4.03;;;11.80;99.90;;;;;;4975419;28;20182;-83
2023/05/19 08:05:58;;;;;;;8.48;4.35;;;11.90;99.90;;;;;;4959076;28;20190;-83
2023/05/19 08:08:24;;;;;;;10.05;6.25;;;11.90;99.90;;;;;;4974747;28;20241;-82
2023/05/19 08:10:50;;;;;;;10.82;4.88;;;11.90;99.90;;;;;;4974931;28;20628;-83
2023/05/19 08:13:16;;;;;;;10.73;4.47;;;11.90;99.90;;;;;;4974280;28;20210;-83
2023/05/19 08:15:42;;;;;;;7.55;3.92;;;11.90;99.90;;;;;;4977018;28;20189;-83
2023/05/19 08:18:07;;;;;;;7.97;4.28;;;11.90;99.90;;;;;;4967566;28;20178;-84
2023/05/19 08:20:33;;;;;;;8.40;3.97;;;11.90;99.90;;;;;;4985586;28;20181;-84
2023/05/19 08:22:59;;;;;;;7.22;5.32;;;11.90;99.90;;;;;;4983220;28;20548;-83
2023/05/19 08:25:24;;;;;;;6.13;4.38;;;12.00;99.90;;;;;;4984373;28;20182;-84
2023/05/19 08:27:50;;;;;;;5.63;3.90;;;12.00;99.90;;;;;;5000055;28;20253;-83
2023/05/19 08:30:16;;;;;;;6.57;3.58;;;12.10;99.90;;;;;;4966728;28;20190;-84
2023/05/19 08:32:42;;;;;;;6.57;4.40;;;12.10;99.90;;;;;;4996633;28;20180;-84
2023/05/19 08:35:08;;;;;;;5.03;3.92;;;12.20;99.90;;;;;;4985503;28;20188;-82
2023/05/19 08:37:36;;;;;;;7.72;3.95;;;12.20;99.90;;;;;;4980760;28;20174;-83
2023/05/19 08:40:07;;;;;;;8.68;4.72;;;12.30;99.90;;;;;;4972055;28;20586;-83
2023/05/19 08:42:33;;;;;;;6.32;4.53;;;12.30;99.90;;;;;;4986815;28;20234;-83
2023/05/19 08:45:00;;;;;;;8.07;4.68;;;12.30;99.90;;;;;;4975652;28;20266;-83
2023/05/19 08:47:27;;;;;;;7.35;4.40;;;12.30;99.90;;;;;;4957385;28;20241;-83
2023/05/19 08:50:06;;;;;;;9.63;6.15;;;12.30;99.90;;;;;;4970841;28;20193;-84
2023/05/19 08:52:48;;;;;;;9.98;5.95;;;12.30;99.90;;;;;;4974713;28;20177;-83
2023/05/19 08:55:40;;;;;;;9.45;5.28;;;12.40;99.90;;;;;;4973631;28;20498;-82
2023/05/19 08:58:07;;;;;;;5.22;3.67;;;12.40;99.90;;;;;;4974197;28;20185;-83
2023/05/19 09:00:33;;;;;;;6.20;4.13;;;12.50;99.90;;;;;;4973342;28;20174;-82
2023/05/19 09:03:00;;;;;;;6.35;3.70;;;12.60;99.90;;;;;;4973543;28;20257;-84
2023/05/19 09:05:25;;;;;;;5.07;3.13;;;12.70;99.90;;;;;;4974316;28;20306;-83
2023/05/19 09:07:51;;;;;;;6.25;3.38;;;12.80;99.90;;;;;;4974508;28;20722;-84
2023/05/19 09:10:17;;;;;;;6.35;4.13;;;13.00;99.90;;;;;;4973260;28;20545;-85
2023/05/19 09:12:44;;;;;;;7.40;4.72;;;13.20;99.90;;;;;;4974715;28;20551;-82
2023/05/19 09:15:11;;;;;;;11.02;5.03;;;13.20;99.90;;;;;;4974639;28;20179;-84
2023/05/19 09:17:37;;;;;;;7.75;4.90;;;13.30;99.90;;;;;;4973069;28;20186;-84
2023/05/19 09:20:10;;;;;;;8.80;5.40;;;13.30;99.90;;;;;;4974560;28;20179;-83
2023/05/19 09:22:49;;;;;;;15.25;6.63;;;13.30;99.90;;;;;;4970068;28;20540;-82
2023/05/19 09:25:22;;;;;;;12.75;6.22;;;13.20;99.90;;;;;;4973288;28;20539;-84
2023/05/19 09:27:49;;;;;;;8.00;5.20;;;13.20;99.90;;;;;;4989417;28;20218;-84
2023/05/19 09:30:16;;;;;;;9.77;6.32;;;13.20;99.90;;;;;;4957320;28;20194;-84
2023/05/19 09:32:42;;;;;;;9.23;5.28;;;13.10;99.90;;;;;;4992371;28;20186;-84
2023/05/19 09:35:09;;;;;;;8.60;4.63;;;13.20;99.90;;;;;;4976120;28;20198;-83
2023/05/19 09:37:39;;;;;;;8.15;5.20;;;13.20;99.90;;;;;;4972671;28;20221;-83
2023/05/19 09:40:08;;;;;;;6.68;4.88;;;13.30;99.90;;;;;;4972964;28;20178;-83
2023/05/19 09:42:36;;;;;;;7.53;5.32;;;13.30;99.90;;;;;;4969203;28;20703;-83
2023/05/19 09:45:03;;;;;;;5.15;4.15;;;13.40;99.90;;;;;;4985562;28;20688;-82
2023/05/19 09:47:39;;;;;;;7.55;4.82;;;13.50;99.90;;;;;;4954505;29;20180;-83
2023/05/19 09:50:07;;;;;;;7.90;4.57;;;13.50;99.90;;;;;;4983010;28;20179;-85
2023/05/19 09:52:43;;;;;;;8.35;4.88;;;13.50;99.90;;;;;;4954454;28;20184;-82
2023/05/19 09:55:10;;;;;;;13.50;5.80;;;13.60;99.90;;;;;;4953350;29;20163;-83
2023/05/19 09:57:37;;;;;;;8.02;4.88;;;13.50;99.90;;;;;;4954264;29;20326;-83
2023/05/19 10:00:18;;;;;;;10.05;4.63;;;13.60;99.90;;;;;;4954704;28;20180;-82
2023/05/19 10:02:46;;;;;;;9.07;5.63;;;13.60;99.90;;;;;;4984792;28;20228;-83
2023/05/19 10:05:18;;;;;;;8.02;5.18;;;13.50;99.90;;;;;;4972712;28;20210;-84
2023/05/19 10:07:47;;;;;;;8.43;5.28;;;13.50;99.90;;;;;;4952436;28;20234;-86
2023/05/19 10:10:14;;;;;;;7.30;4.72;;;13.60;99.90;;;;;;4974627;28;20190;-85
2023/05/19 10:12:41;;;;;;;8.13;4.97;;;13.60;99.90;;;;;;4985137;28;20187;-83
2023/05/19 10:15:09;;;;;;;11.13;5.22;;;13.60;99.90;;;;;;4955462;28;20653;-83
2023/05/19 10:17:42;;;;;;;7.10;4.20;;;13.70;99.90;;;;;;4954128;29;20234;-85
2023/05/19 10:20:12;;;;;;;6.43;4.00;;;13.70;99.90;;;;;;4953951;28;20206;-83
2023/05/19 10:22:39;;;;;;;7.70;3.80;;;13.80;99.90;;;;;;4953004;29;20589;-83
2023/05/19 10:25:06;;;;;;;8.48;4.25;;;13.80;99.90;;;;;;4954092;29;20187;-82
2023/05/19 10:27:35;;;;;;;11.02;4.75;;;13.90;99.90;;;;;;4984624;28;20207;-83
2023/05/19 10:30:09;;;;;;;8.45;4.50;;;14.00;99.90;;;;;;4952209;29;20195;-81
2023/05/19 10:32:38;;;;;;;9.10;3.63;;;14.10;99.90;;;;;;4953950;28;20178;-82
2023/05/19 10:35:38;;;;;;;9.70;3.97;;;14.10;99.90;;;;;;4953246;29;20183;-81
2023/05/19 10:38:41;;;;;;;9.02;4.28;;;14.20;99.90;;;;;;4985569;28;20198;-81
2023/05/19 10:41:25;;;;;;;11.63;4.43;;;14.20;99.90;;;;;;4955169;28;20191;-82
2023/05/19 10:44:15;;;;;;;6.82;3.97;;;14.10;99.90;;;;;;4973424;28;20230;-81
2023/05/19 10:46:41;;;;;;;6.05;3.65;;;14.20;99.90;;;;;;4952015;28;20233;-82
2023/05/19 10:49:07;;;;;;;7.82;4.45;;;14.20;99.90;;;;;;4974712;28;20206;-80
2023/05/19 10:51:35;;;;;;;11.57;4.68;;;14.20;99.90;;;;;;4973914;28;20179;-82
2023/05/19 10:54:08;;;;;;;7.88;4.47;;;14.30;99.90;;;;;;4957966;28;20186;-82
2023/05/19 10:56:40;;;;;;;9.32;4.93;;;14.20;99.90;;;;;;4974700;28;20243;-81
2023/05/19 10:59:06;;;;;;;13.80;4.47;;;14.20;99.90;;;;;;4974481;28;20539;-81
2023/05/19 11:01:37;;;;;;;10.18;3.85;;;14.10;99.90;;;;;;4974181;28;20174;-83
2023/05/19 11:04:11;;;;;;;10.73;5.05;;;14.20;99.90;;;;;;4989351;28;20632;-81
2023/05/19 11:06:39;;;;;;;8.73;5.07;;;14.20;99.90;;;;;;4988932;28;20173;-82
2023/05/19 11:09:16;;;;;;;11.82;5.38;;;14.30;99.90;;;;;;4974433;28;20210;-83
2023/05/19 11:11:45;;;;;;;7.53;4.78;;;14.20;99.90;;;;;;4973737;28;20265;-82
2023/05/19 11:14:12;;;;;;;8.95;4.82;;;14.20;99.90;;;;;;4974199;28;20171;-82
2023/05/19 11:16:40;;;;;;;11.57;5.63;;;14.20;99.90;;;;;;4974004;28;20174;-81
2023/05/19 11:19:06;;;;;;;10.43;5.30;;;14.20;99.90;;;;;;4974404;28;20185;-82
2023/05/19 11:21:47;;;;;;;10.60;5.32;;;14.20;99.90;;;;;;4974535;28;20175;-83
2023/05/19 11:24:35;;;;;;;8.88;4.00;;;14.30;99.90;;;;;;4974335;28;20216;-83
2023/05/19 11:27:30;;;;;;;11.52;5.78;;;14.30;99.90;;;;;;4956724;28;20209;-81
2023/05/19 11:30:05;;;;;;;7.70;5.07;;;14.20;99.90;;;;;;4952753;28;20727;-83
2023/05/19 11:32:37;;;;;;;7.60;5.40;;;14.20;99.90;;;;;;4960706;28;20184;-83
2023/05/19 11:35:04;;;;;;;13.73;6.70;;;14.10;99.90;;;;;;4977637;28;20178;-82
2023/05/19 11:37:33;;;;;;;10.40;6.32;;;14.00;99.90;;;;;;4977470;28;20217;-82
2023/05/19 11:40:06;;;;;;;15.63;6.18;;;14.10;99.90;;;;;;4977374;28;20690;-82
2023/05/19 11:42:33;;;;;;;12.32;6.28;;;14.00;99.90;;;;;;4960058;28;20225;-82
2023/05/19 11:45:00;;;;;;;7.93;5.07;;;13.90;99.90;;;;;;4977634;28;20643;-82
2023/05/19 11:47:27;;;;;;;11.15;5.43;;;13.80;99.90;;;;;;4975780;28;20186;-81
2023/05/19 11:49:55;;;;;;;16.55;5.40;;;13.80;99.90;;;;;;4977857;28;20214;-84
2023/05/19 11:52:26;;;;;;;18.40;7.35;;;13.90;99.90;;;;;;4960004;28;20597;-83
2023/05/19 11:54:52;;;;;;;14.13;6.32;;;13.90;99.90;;;;;;4977210;28;20171;-83
2023/05/19 11:57:18;;;;;;;11.43;6.88;;;14.00;99.90;;;;;;4976252;28;20218;-83
2023/05/19 11:59:46;;;;;;;11.95;6.13;;;14.00;99.90;;;;;;4977228;28;20183;-84
2023/05/19 12:02:15;;;;;;;12.38;5.97;;;14.00;99.90;;;;;;4992094;28;20174;-82
2023/05/19 12:04:41;;;;;;;8.30;4.97;;;14.00;99.90;;;;;;4977029;28;20187;-84
2023/05/19 12:07:07;;;;;;;8.70;4.50;;;13.90;99.90;;;;;;4976988;28;20170;-83
2023/05/19 12:09:33;;;;;;;9.52;4.65;;;13.90;99.90;;;;;;4975908;28;20214;-85
2023/05/19 12:11:59;;;;;;;9.32;4.57;;;13.90;99.90;;;;;;4976854;28;20190;-85
2023/05/19 12:14:28;;;;;;;10.73;5.15;;;13.80;99.90;;;;;;4977363;28;20237;-84
2023/05/19 12:16:54;;;;;;;8.82;5.53;;;13.90;99.90;;;;;;4991967;28;20182;-84
2023/05/19 12:19:22;;;;;;;9.30;5.57;;;13.90;99.90;;;;;;4977234;28;20213;-84
2023/05/19 12:21:48;;;;;;;10.25;5.53;;;13.90;99.90;;;;;;4959320;28;20589;-84
2023/05/19 12:24:14;;;;;;;15.55;5.97;;;14.00;99.90;;;;;;4975631;28;20261;-83
2023/05/19 12:26:40;;;;;;;10.30;5.13;;;14.00;99.90;;;;;;4975929;28;20197;-82
2023/05/19 12:29:06;;;;;;;8.85;5.78;;;14.00;99.90;;;;;;4991681;28;20206;-84
2023/05/19 12:31:33;;;;;;;8.35;4.78;;;14.00;99.90;;;;;;4959741;28;20484;-83
2023/05/19 12:34:00;;;;;;;9.88;5.80;;;14.00;99.90;;;;;;4976989;28;20194;-87
2023/05/19 12:36:27;;;;;;;13.65;5.38;;;14.00;99.90;;;;;;4960038;28;20227;-84
2023/05/19 12:38:56;;;;;;;9.63;5.38;;;14.00;99.90;;;;;;4976504;28;20214;-82
2023/05/19 12:41:23;;;;;;;9.23;5.32;;;14.00;99.90;;;;;;4976270;28;20245;-83
2023/05/19 12:43:49;;;;;;;8.32;5.45;;;14.00;99.90;;;;;;4976815;28;20230;-83
2023/05/19 12:46:17;;;;;;;13.20;5.13;;;14.10;99.90;;;;;;4976506;28;20182;-83
2023/05/19 12:48:44;;;;;;;10.82;5.15;;;14.10;99.90;;;;;;4977005;28;20206;-82
2023/05/19 12:51:14;;;;;;;9.93;5.65;;;14.10;99.90;;;;;;4975249;28;20186;-83
2023/05/19 12:53:41;;;;;;;9.00;5.43;;;14.00;99.90;;;;;;4976399;28;20258;-83